»·PEaware :: DAL213 KJAC-KSLC

DAL213 :: KJAC-KSLC

FLIGHT INFORMATION

Flight Status: Arrived
Operator:
Delta Air Lines
More flights by this operator :: More flights under this callsign
Pilot: Nicolas L. (9332)
Aircraft: BOEING 737-800
(B738)
More flights by this aircraft type
Origin: KJAC Jackson Hole
United States
Destination: KSLC Salt Lake City Intl
United States
More flights between these airports :: More routes between these airports
Route: ALPIN2 KICNE LHO LHO4
File this flight plan on PilotEdge
Remarks: Live Streaming on Twith "DAL213" and YT
Altitude:
(Current/Filed)
22,000ft
Speed:
(Current/Filed)
400kts
Departed: 14-May-18 07:08 PM
Arrived: 14-May-18 07:42 PM
Distance/Time
Traveled:
178nm/0:34
Distance/Time
To Go:
Arrived

Flight Plot

Page will automatically refresh every two minutes.

Flight plan parsing failed; only flown route is shown


Map Options




Map Legend


Flown Route
Filed Route
Departure Airport
Arrival Airport
Navaid (VOR, NDB)
Fix

Horizontal Profiles

Position Reports

Time Latitude Longitude Heading Altitude Ground
Speed
14-May-18 18:51 43.602746 -110.737547 109 6459ft 0kts
14-May-18 18:52 43.602746 -110.737547 109 6459ft 0kts
14-May-18 18:53 43.602746 -110.737547 109 6459ft 0kts
14-May-18 18:54 43.602746 -110.737547 109 6459ft 0kts
14-May-18 18:55 43.602746 -110.737547 109 6459ft 0kts
14-May-18 18:56 43.602746 -110.737547 109 6459ft 0kts
14-May-18 18:57 43.602746 -110.737547 109 6459ft 0kts
14-May-18 18:58 43.602746 -110.737547 109 6459ft 0kts
14-May-18 18:59 43.602746 -110.737547 109 6459ft 0kts
14-May-18 19:00 43.602746 -110.737547 109 6459ft 0kts
14-May-18 19:01 43.602748 -110.737558 109 6460ft 0kts
14-May-18 19:02 43.602671 -110.738511 53 6460ft 2kts
14-May-18 19:03 43.602664 -110.738523 53 6460ft 0kts
14-May-18 19:04 43.602664 -110.738523 53 6460ft 0kts
14-May-18 19:05 43.603983 -110.737796 18 6460ft 15kts
14-May-18 19:06 43.608982 -110.735364 18 6460ft 20kts
14-May-18 19:07 43.614813 -110.732583 357 6460ft 13kts
14-May-18 19:08 43.608636 -110.737079 201 6460ft 112kts
14-May-18 19:09 43.565914 -110.767489 212 8383ft 198kts
14-May-18 19:10 43.507288 -110.806971 204 10436ft 269kts
14-May-18 19:11 43.449269 -110.843651 204 12031ft 317kts
14-May-18 19:12 43.366851 -110.895441 203 15148ft 334kts
14-May-18 19:13 43.280586 -110.949409 203 18203ft 348kts
14-May-18 19:14 43.190767 -111.008072 207 20940ft 366kts
14-May-18 19:15 43.097947 -111.076584 207 22147ft 392kts
14-May-18 19:16 43.001281 -111.147312 207 22151ft 394kts
14-May-18 19:17 42.904350 -111.217910 206 22154ft 394kts
14-May-18 19:18 42.807793 -111.287981 207 22156ft 393kts
14-May-18 19:19 42.711153 -111.357862 206 22155ft 392kts
14-May-18 19:20 42.615054 -111.427102 206 22154ft 390kts
14-May-18 19:21 42.519267 -111.495883 206 22149ft 389kts
14-May-18 19:22 42.423349 -111.564507 206 22141ft 388kts
14-May-18 19:23 42.327947 -111.632538 206 22139ft 387kts
14-May-18 19:24 42.232861 -111.700100 206 22128ft 386kts
14-May-18 19:25 42.137553 -111.767597 206 22123ft 386kts
14-May-18 19:26 42.042684 -111.834549 206 22117ft 385kts
14-May-18 19:27 41.947629 -111.901409 206 22114ft 385kts
14-May-18 19:28 41.852791 -111.967887 206 22112ft 385kts
14-May-18 19:29 41.754432 -112.014343 186 20530ft 373kts
14-May-18 19:30 41.652627 -112.031373 185 18698ft 363kts
14-May-18 19:31 41.569842 -112.044645 185 17199ft 356kts
14-May-18 19:32 41.472550 -112.039264 174 15303ft 346kts
14-May-18 19:33 41.377305 -112.030431 175 13593ft 339kts
14-May-18 19:34 41.284275 -112.022450 175 11988ft 326kts
14-May-18 19:35 41.200569 -112.015367 175 11145ft 291kts
14-May-18 19:36 41.122238 -112.009891 178 9937ft 278kts
14-May-18 19:37 41.044722 -112.004933 174 8848ft 280kts
14-May-18 19:38 40.968562 -111.995772 175 7348ft 267kts
14-May-18 19:39 40.900034 -111.987566 174 6027ft 207kts
14-May-18 19:40 40.853493 -111.982555 172 5164ft 130kts
14-May-18 19:41 40.815920 -111.977971 174 4449ft 137kts
14-May-18 19:42 40.791786 -111.975485 196 4236ft 18kts
14-May-18 19:43 40.789231 -111.977777 239 4236ft 6kts
14-May-18 19:44 40.789117 -111.978030 239 4236ft 0kts
14-May-18 19:45 40.789117 -111.978030 239 4236ft 0kts
14-May-18 19:46 40.789117 -111.978030 239 4236ft 0kts
14-May-18 19:47 40.789117 -111.978030 239 4236ft 0kts
14-May-18 19:48 40.789117 -111.978030 239 4236ft 0kts
14-May-18 19:49 40.789117 -111.978030 239 4236ft 0kts
14-May-18 19:50 40.789117 -111.978030 239 4236ft 0kts
14-May-18 19:51 40.789117 -111.978030 239 4236ft 0kts
14-May-18 19:52 40.789117 -111.978030 239 4236ft 0kts
14-May-18 19:53 40.789117 -111.978030 239 4235ft 0kts
14-May-18 19:54 40.789117 -111.978030 239 4235ft 0kts

Navigation Log

Ident Type
Flight plan parsing failed, navigation log unavailable